Time;durP1;ratioP1;P1;durP2;ratioP2;P2;SDS_P1;SDS_P2;PMS_P1;PMS_P2;Temp;Humidity;BMP_temperature;BMP_pressure;BME280_temperature;BME280_humidity;BME280_pressure;Samples;Min_cycle;Max_cycle;Signal;HPM_P1;HPM_P2
2023/06/22 00:01:21;;;;;;;13.47;12.20;;;21.40;99.90;;;;;;6220039;23;20398;-88
2023/06/22 00:03:48;;;;;;;15.53;14.03;;;21.40;99.90;;;;;;6234282;23;20462;-89
2023/06/22 00:06:14;;;;;;;14.37;12.97;;;21.30;99.90;;;;;;6220472;23;20434;-89
2023/06/22 00:08:42;;;;;;;14.60;13.10;;;21.50;1.00;;;;;;6218945;23;20446;-89
2023/06/22 00:11:09;;;;;;;15.10;13.77;;;21.30;99.90;;;;;;6218704;23;20413;-89
2023/06/22 00:13:36;;;;;;;14.30;12.90;;;21.20;99.90;;;;;;6218277;23;20410;-89
2023/06/22 00:16:02;;;;;;;15.57;13.97;;;21.20;99.90;;;;;;6220816;23;20474;-89
2023/06/22 00:18:31;;;;;;;14.30;12.90;;;21.20;99.90;;;;;;6221752;23;20456;-89
2023/06/22 00:20:58;;;;;;;14.63;12.53;;;21.20;1.00;;;;;;6245075;23;20462;-88
2023/06/22 00:23:25;;;;;;;14.10;12.70;;;21.30;44.40;;;;;;6246269;23;20453;-88
2023/06/22 00:25:52;;;;;;;13.70;12.30;;;20.90;1.00;;;;;;6246228;23;20389;-88
2023/06/22 00:28:19;;;;;;;14.30;11.43;;;21.10;99.90;;;;;;6246107;23;20462;-88
2023/06/22 00:30:47;;;;;;;13.20;11.90;;;21.10;99.90;;;;;;6235001;23;20410;-88
2023/06/22 00:33:15;;;;;;;14.63;13.13;;;21.10;1.00;;;;;;6225845;23;20410;-89
2023/06/22 00:35:44;;;;;;;14.40;13.10;;;21.40;1.00;;;;;;6222392;23;20420;-88
2023/06/22 00:38:11;;;;;;;12.50;11.40;;;21.10;1.00;;;;;;6221986;23;20446;-88
2023/06/22 00:40:38;;;;;;;13.03;11.37;;;21.10;1.00;;;;;;6244100;23;20434;-88
2023/06/22 00:43:06;;;;;;;13.50;12.17;;;20.90;1.00;;;;;;6246107;23;20420;-89
2023/06/22 00:45:33;;;;;;;13.13;12.03;;;20.70;1.00;;;;;;6244384;23;20394;-89
2023/06/22 00:48:01;;;;;;;12.83;11.53;;;21.30;1.00;;;;;;6233344;23;20417;-88
2023/06/22 00:50:33;;;;;;;12.37;11.17;;;20.90;1.00;;;;;;6239781;23;20398;-88
2023/06/22 00:53:07;;;;;;;14.70;13.03;;;21.00;1.00;;;;;;6239730;23;20397;-88
2023/06/22 00:55:38;;;;;;;12.83;11.63;;;20.90;1.00;;;;;;6229216;23;20386;-88
2023/06/22 00:58:07;;;;;;;15.13;13.60;;;20.80;99.90;;;;;;6224170;23;20398;-90
2023/06/22 01:00:35;;;;;;;13.27;11.97;;;20.50;1.00;;;;;;6221249;23;20405;-88
2023/06/22 01:03:03;;;;;;;13.63;12.23;;;20.80;99.90;;;;;;6219864;23;20477;-88
2023/06/22 01:05:32;;;;;;;12.73;11.63;;;20.50;99.90;;;;;;6219213;23;20489;-88
2023/06/22 01:08:09;;;;;;;13.70;12.27;;;21.10;99.90;;;;;;6221221;23;20403;-88
2023/06/22 01:10:44;;;;;;;13.80;12.50;;;20.80;1.00;;;;;;6219800;23;20472;-88
2023/06/22 01:13:19;;;;;;;13.07;11.87;;;20.70;99.90;;;;;;6219969;23;20386;-88
2023/06/22 01:15:50;;;;;;;15.20;12.50;;;20.70;99.90;;;;;;6220977;23;20401;-89
2023/06/22 01:18:19;;;;;;;13.90;12.50;;;20.70;99.90;;;;;;6221008;23;20483;-88
2023/06/22 01:20:46;;;;;;;14.10;12.63;;;20.70;99.90;;;;;;6220393;23;20414;-88
2023/06/22 01:23:28;;;;;;;14.37;12.97;;;20.70;99.90;;;;;;6220239;23;20418;-88
2023/06/22 01:26:05;;;;;;;14.33;12.93;;;20.50;1.00;;;;;;6227490;23;20470;-89
2023/06/22 01:28:44;;;;;;;13.40;12.00;;;20.70;1.00;;;;;;6243838;23;20429;-89
2023/06/22 01:31:14;;;;;;;13.63;12.23;;;20.70;99.90;;;;;;6245719;23;20394;-89
2023/06/22 01:33:44;;;;;;;14.40;13.10;;;20.70;1.00;;;;;;6245682;23;20410;-89
2023/06/22 01:36:12;;;;;;;15.37;13.87;;;20.70;1.00;;;;;;6245566;23;20414;-89
2023/06/22 01:38:40;;;;;;;16.37;13.20;;;20.80;99.90;;;;;;6245050;23;20441;-88
2023/06/22 01:41:06;;;;;;;16.50;14.17;;;20.60;1.00;;;;;;6245537;23;20397;-88
2023/06/22 01:43:35;;;;;;;14.47;13.13;;;20.60;99.90;;;;;;6244600;23;20394;-88
2023/06/22 01:46:04;;;;;;;14.93;13.47;;;20.50;99.90;;;;;;6226228;23;20768;-88
2023/06/22 01:48:31;;;;;;;16.13;14.53;;;20.60;1.00;;;;;;6222858;23;22685;-88
2023/06/22 01:50:59;;;;;;;14.77;13.43;;;20.50;99.90;;;;;;6235711;23;20417;-88
2023/06/22 01:53:26;;;;;;;15.73;14.27;;;20.40;99.90;;;;;;6221112;23;20406;-88
2023/06/22 01:55:53;;;;;;;15.60;14.00;;;20.40;1.00;;;;;;6220348;23;20412;-88
2023/06/22 01:58:22;;;;;;;17.27;15.60;;;20.40;1.00;;;;;;6224443;23;20458;-88
2023/06/22 02:00:52;;;;;;;16.70;15.17;;;20.70;99.90;;;;;;6220328;23;20409;-88
2023/06/22 02:03:24;;;;;;;16.10;14.50;;;20.60;99.90;;;;;;6220302;23;20433;-87
2023/06/22 02:05:56;;;;;;;16.27;14.63;;;20.60;99.90;;;;;;6222972;23;20418;-87
2023/06/22 02:08:27;;;;;;;17.33;15.60;;;20.70;91.90;;;;;;6220204;23;20430;-87
2023/06/22 02:10:56;;;;;;;17.20;15.60;;;20.70;39.30;;;;;;6220520;23;20575;-87
2023/06/22 02:13:24;;;;;;;18.70;16.77;;;20.60;99.90;;;;;;6221330;23;20500;-87
2023/06/22 02:15:52;;;;;;;16.23;14.73;;;20.60;99.90;;;;;;6220376;23;20802;-87
2023/06/22 02:18:20;;;;;;;18.00;16.23;;;20.50;99.90;;;;;;6220628;23;20465;-87
2023/06/22 02:20:47;;;;;;;16.67;15.00;;;20.60;1.00;;;;;;6219671;23;20462;-88
2023/06/22 02:23:14;;;;;;;16.93;15.23;;;20.70;1.00;;;;;;6219834;23;20922;-88
2023/06/22 02:25:44;;;;;;;16.63;14.97;;;20.50;44.50;;;;;;6219022;23;20934;-87
2023/06/22 02:28:11;;;;;;;18.53;16.63;;;20.10;1.00;;;;;;6219380;23;20430;-87
2023/06/22 02:30:38;;;;;;;18.93;17.03;;;20.40;1.00;;;;;;6220640;23;20942;-87
2023/06/22 02:33:05;;;;;;;19.23;17.00;;;20.40;99.90;;;;;;6221400;23;20815;-87
2023/06/22 02:35:35;;;;;;;17.43;15.73;;;20.40;99.90;;;;;;6220252;23;20496;-87
2023/06/22 02:38:03;;;;;;;16.73;15.00;;;20.60;47.90;;;;;;6233781;23;20386;-87
2023/06/22 02:40:31;;;;;;;19.23;16.23;;;20.40;1.00;;;;;;6238903;23;21012;-87
2023/06/22 02:43:02;;;;;;;18.70;15.90;;;20.40;1.00;;;;;;6239655;23;20390;-87
2023/06/22 02:45:29;;;;;;;17.77;15.90;;;20.50;1.00;;;;;;6241259;23;20390;-87
2023/06/22 02:47:56;;;;;;;17.30;15.70;;;20.70;44.60;;;;;;6244831;23;20414;-87
2023/06/22 02:50:23;;;;;;;18.97;17.00;;;20.20;99.90;;;;;;6244825;23;20426;-87
2023/06/22 02:52:52;;;;;;;17.00;15.40;;;20.40;1.00;;;;;;6243428;23;20406;-87
2023/06/22 02:55:18;;;;;;;17.90;16.00;;;20.50;1.00;;;;;;6229660;23;20433;-88
2023/06/22 02:57:47;;;;;;;17.23;15.53;;;20.50;1.00;;;;;;6222511;23;20454;-89
2023/06/22 03:00:17;;;;;;;17.77;15.90;;;20.70;99.90;;;;;;6220569;23;20457;-88
2023/06/22 03:02:45;;;;;;;18.43;16.73;;;20.50;1.00;;;;;;6219644;23;20750;-88
2023/06/22 03:05:13;;;;;;;19.77;16.47;;;20.50;1.00;;;;;;6219024;23;20410;-88
2023/06/22 03:07:41;;;;;;;18.93;15.60;;;20.40;1.00;;;;;;6219085;23;20406;-88
2023/06/22 03:10:11;;;;;;;18.20;16.47;;;20.40;3.00;;;;;;6222073;23;20529;-88
2023/06/22 03:12:38;;;;;;;19.37;17.50;;;20.30;99.90;;;;;;6244501;23;20390;-88
2023/06/22 03:15:07;;;;;;;16.87;15.27;;;20.40;11.20;;;;;;6244020;23;20391;-88
2023/06/22 03:17:34;;;;;;;20.90;17.03;;;20.40;99.90;;;;;;6244437;23;20382;-88
2023/06/22 03:20:06;;;;;;;19.13;17.17;;;20.40;99.90;;;;;;6244229;23;20442;-88
2023/06/22 03:22:33;;;;;;;17.53;15.93;;;20.40;38.00;;;;;;6229254;23;20395;-88
2023/06/22 03:25:00;;;;;;;17.63;15.83;;;20.30;89.80;;;;;;6219629;23;20410;-88
2023/06/22 03:27:28;;;;;;;17.97;15.73;;;20.30;99.90;;;;;;6242455;23;20411;-88
2023/06/22 03:29:55;;;;;;;17.87;16.07;;;20.20;99.90;;;;;;6243775;23;20468;-88
2023/06/22 03:32:22;;;;;;;17.43;15.63;;;20.20;99.90;;;;;;6226832;23;20406;-89
2023/06/22 03:34:49;;;;;;;17.57;15.13;;;20.20;99.90;;;;;;6222051;23;20879;-88
2023/06/22 03:37:16;;;;;;;17.80;15.93;;;19.90;99.90;;;;;;6220071;23;20438;-87
2023/06/22 03:39:43;;;;;;;16.17;14.57;;;20.20;1.00;;;;;;6220499;23;20434;-88
2023/06/22 03:42:10;;;;;;;15.10;13.60;;;20.20;1.00;;;;;;6220675;23;20471;-87
2023/06/22 03:44:38;;;;;;;15.70;14.10;;;20.20;1.00;;;;;;6219563;23;20500;-87
2023/06/22 03:47:07;;;;;;;15.43;13.93;;;20.30;1.00;;;;;;6218538;23;20414;-88
2023/06/22 03:49:34;;;;;;;16.13;14.33;;;;;;;;;;6218914;23;20442;-88
2023/06/22 03:52:02;;;;;;;14.47;13.07;;;20.20;1.00;;;;;;6221332;23;20406;-88
2023/06/22 03:54:30;;;;;;;15.60;14.17;;;20.10;1.00;;;;;;6218689;23;20441;-88
2023/06/22 03:56:58;;;;;;;14.27;12.97;;;20.20;1.00;;;;;;6221227;23;20465;-89
2023/06/22 03:59:26;;;;;;;21.57;13.50;;;20.20;99.90;;;;;;6218283;23;20446;-88
2023/06/22 04:01:54;;;;;;;16.77;13.13;;;20.20;1.00;;;;;;6218974;23;20536;-88
2023/06/22 04:04:21;;;;;;;14.80;13.40;;;20.20;1.00;;;;;;6219437;23;20464;-88
2023/06/22 04:06:48;;;;;;;14.80;13.23;;;20.20;1.00;;;;;;6219634;23;20410;-88
2023/06/22 04:09:15;;;;;;;14.37;13.07;;;20.20;1.00;;;;;;6221721;23;20524;-87
2023/06/22 04:11:42;;;;;;;13.93;12.53;;;20.20;99.90;;;;;;6222989;23;20402;-88
2023/06/22 04:14:08;;;;;;;14.70;12.80;;;20.10;1.00;;;;;;6219903;23;20743;-88
2023/06/22 04:16:35;;;;;;;18.40;14.60;;;20.20;99.90;;;;;;6219589;23;20743;-89
2023/06/22 04:19:04;;;;;;;16.47;13.70;;;20.20;99.90;;;;;;6219235;23;20453;-88
2023/06/22 04:21:31;;;;;;;19.47;15.13;;;20.10;1.00;;;;;;6218541;23;20419;-88
2023/06/22 04:23:57;;;;;;;18.80;14.53;;;20.10;1.00;;;;;;6219955;23;20438;-88
2023/06/22 04:26:24;;;;;;;20.07;15.90;;;19.80;99.90;;;;;;6218488;23;20406;-88
2023/06/22 04:28:55;;;;;;;15.77;14.17;;;20.20;1.00;;;;;;6219686;23;20461;-88
2023/06/22 04:31:22;;;;;;;15.83;14.33;;;20.10;1.00;;;;;;6219157;23;20450;-88
2023/06/22 04:33:51;;;;;;;15.83;14.20;;;;;;;;;;6219647;23;20724;-89
2023/06/22 04:36:21;;;;;;;15.33;13.70;;;20.20;1.00;;;;;;6222141;23;20754;-88
2023/06/22 04:39:33;;;;;;;17.00;15.37;;;20.10;99.90;;;;;;6224843;22;20434;-95
2023/06/22 05:18:29;;;;;;;11.93;10.83;;;20.70;1.00;;;;;;6225686;23;20433;-88
2023/06/22 05:21:06;;;;;;;11.80;10.40;;;;;;;;;;6226648;23;20426;-89
2023/06/22 05:23:35;;;;;;;13.90;10.43;;;;;;;;;;6225146;23;20406;-87
2023/06/22 05:26:03;;;;;;;12.73;9.90;;;;;;;;;;6225083;23;20430;-88
2023/06/22 05:28:30;;;;;;;11.77;10.77;;;;;;;;;;6234488;23;20436;-88
2023/06/22 05:42:09;;;;;;;11.50;9.60;;;21.20;99.90;;;;;;6082332;23;20407;-93
2023/06/22 05:44:40;;;;;;;9.97;9.10;;;21.40;1.00;;;;;;6214975;23;20395;-92
2023/06/22 05:47:08;;;;;;;10.80;9.40;;;;;;;;;;6211724;23;20419;-93
2023/06/22 05:49:45;;;;;;;11.77;10.57;;;18.50;99.90;;;;;;6210389;23;20830;-92
2023/06/22 05:52:15;;;;;;;10.47;9.37;;;;;;;;;;6208551;23;20434;-93
2023/06/22 05:54:42;;;;;;;9.67;8.80;;;;;;;;;;6213696;23;20403;-93
2023/06/22 05:57:15;;;;;;;12.70;11.40;;;21.50;99.90;;;;;;6214719;23;20442;-92
2023/06/22 05:59:42;;;;;;;10.47;9.40;;;;;;;;;;6208785;23;20396;-93
2023/06/22 06:02:13;;;;;;;10.53;8.20;;;;;;;;;;6203151;23;20399;-93
2023/06/22 06:04:40;;;;;;;11.87;9.33;;;;;;;;;;6202974;23;20440;-92
2023/06/22 06:07:35;;;;;;;10.87;8.33;;;21.50;99.90;;;;;;6200767;23;20407;-92
2023/06/22 06:13:01;;;;;;;12.77;8.70;;;21.60;99.90;;;;;;6199979;23;20384;-92
2023/06/22 06:15:54;;;;;;;9.03;8.33;;;22.40;99.90;;;;;;6204756;23;20451;-92
2023/06/22 06:18:31;;;;;;;8.07;7.30;;;21.70;99.90;;;;;;6207907;23;20482;-93
2023/06/22 06:21:21;;;;;;;12.10;9.13;;;21.60;99.90;;;;;;6208231;23;20426;-92
2023/06/22 06:24:15;;;;;;;9.60;8.60;;;21.60;99.90;;;;;;6208443;23;20414;-92
2023/06/22 06:31:16;;;;;;;;;;;;;;;;;;;;;
2023/06/22 07:02:15;;;;;;;8.13;5.60;;;22.90;1.00;;;;;;6139033;23;20415;-93
2023/06/22 07:05:15;;;;;;;6.87;5.93;;;23.10;1.00;;;;;;6199821;23;20372;-93
2023/06/22 07:10:56;;;;;;;5.80;5.30;;;23.00;1.00;;;;;;6210049;22;20457;-92
2023/06/22 07:13:28;;;;;;;7.10;5.50;;;;;;;;;;6232522;23;20433;-93
2023/06/22 07:16:19;;;;;;;5.57;5.07;;;23.00;1.00;;;;;;6231633;23;20478;-93
2023/06/22 07:21:56;;;;;;;6.53;5.53;;;23.40;99.90;;;;;;6231101;23;20426;-93
2023/06/22 07:24:30;;;;;;;5.87;5.37;;;;;;;;;;6244640;22;20453;-91
2023/06/22 07:27:35;;;;;;;7.53;5.50;;;23.70;1.00;;;;;;6257487;23;20440;-90
2023/06/22 07:30:37;;;;;;;5.80;5.30;;;23.60;1.00;;;;;;6274441;22;20437;-90
2023/06/22 07:33:34;;;;;;;9.33;5.80;;;23.50;1.00;;;;;;6258361;23;20401;-90
2023/06/22 07:39:57;;;;;;;;;;;;;;;;;;;;;
2023/06/22 07:42:26;;;;;;;4.67;4.20;;;23.70;1.00;;;;;;6237216;23;20917;-89
2023/06/22 07:44:54;;;;;;;5.07;4.10;;;;;;;;;;6229186;23;20426;-89
2023/06/22 07:47:25;;;;;;;5.10;3.97;;;23.50;99.90;;;;;;6228100;23;20410;-89
2023/06/22 07:49:54;;;;;;;11.20;8.30;;;;;;;;;;6228576;23;20442;-89
2023/06/22 07:52:22;;;;;;;5.60;4.30;;;23.90;1.00;;;;;;6229421;23;20875;-87
2023/06/22 08:15:31;;;;;;;5.10;3.77;;;24.20;1.00;;;;;;6176927;23;20442;-86
2023/06/22 08:18:22;;;;;;;10.73;4.10;;;24.20;1.00;;;;;;6091552;23;20466;-87
2023/06/22 09:45:51;;;;;;;4.60;4.20;;;25.80;1.00;;;;;;6232630;22;20441;-92
2023/06/22 10:10:24;;;;;;;5.87;4.63;;;26.00;1.00;;;;;;6151184;23;20393;-89
2023/06/22 10:27:44;;;;;;;4.83;4.43;;;26.30;1.00;;;;;;6231531;23;20354;-90
2023/06/22 10:30:51;;;;;;;4.10;3.80;;;26.50;1.00;;;;;;6238565;23;20405;-92
2023/06/22 10:39:22;;;;;;;5.73;4.33;;;26.70;1.00;;;;;;6225406;22;20437;-89
2023/06/22 10:46:05;;;;;;;5.17;4.23;;;26.80;1.00;;;;;;6093793;23;20412;-89
2023/06/22 10:53:21;;;;;;;6.77;5.40;;;26.60;1.00;;;;;;6104454;23;20466;-92
2023/06/22 11:09:24;;;;;;;4.10;3.70;;;27.00;99.90;;;;;;6163131;23;20396;-91
2023/06/22 11:29:37;;;;;;;5.73;5.23;;;26.90;1.00;;;;;;6217959;23;20437;-90
2023/06/22 11:32:54;;;;;;;4.60;3.93;;;26.80;1.00;;;;;;6224340;23;20504;-90
2023/06/22 11:38:24;;;;;;;4.67;4.20;;;27.20;99.90;;;;;;6100288;23;20418;-88
2023/06/22 12:00:16;;;;;;;5.30;4.87;;;27.80;1.00;;;;;;6209182;23;20434;-91
2023/06/22 12:03:00;;;;;;;5.13;4.40;;;27.50;1.00;;;;;;6212527;23;20403;-90
2023/06/22 12:05:27;;;;;;;6.90;5.00;;;;;;;;;;6201545;23;20408;-91
2023/06/22 12:07:55;;;;;;;4.50;4.20;;;;;;;;;;6213195;23;20403;-91
2023/06/22 12:10:46;;;;;;;4.73;4.33;;;27.70;1.00;;;;;;6210325;23;20452;-89
2023/06/22 12:13:38;;;;;;;5.10;4.70;;;27.60;1.00;;;;;;6235441;23;20389;-90
2023/06/22 12:16:28;;;;;;;4.80;4.40;;;27.50;99.90;;;;;;6214834;23;20398;-89
2023/06/22 12:21:58;;;;;;;5.53;5.00;;;27.90;1.00;;;;;;6220598;23;20825;-89
2023/06/22 12:24:43;;;;;;;6.13;5.00;;;27.60;1.00;;;;;;6223053;23;20398;-89
2023/06/22 12:27:34;;;;;;;4.43;4.13;;;27.60;99.90;;;;;;6240059;23;20420;-86
2023/06/22 12:30:16;;;;;;;5.67;4.70;;;27.60;99.90;;;;;;6246007;23;20429;-87
2023/06/22 12:36:05;;;;;;;7.73;7.03;;;27.80;1.00;;;;;;6219815;23;20402;-88
2023/06/22 12:38:55;;;;;;;5.80;5.27;;;27.80;99.90;;;;;;6222849;23;20494;-87
2023/06/22 12:41:24;;;;;;;6.03;5.40;;;;;;;;;;6228624;23;20395;-89
2023/06/22 12:44:12;;;;;;;7.93;7.20;;;27.90;1.00;;;;;;6222915;23;20418;-89
2023/06/22 12:47:21;;;;;;;5.90;5.40;;;27.90;99.90;;;;;;6222429;23;20414;-88
2023/06/22 12:50:35;;;;;;;;;;;;;;;;;;;;;
2023/06/22 12:56:30;;;;;;;5.20;4.80;;;27.80;99.90;;;;;;6241111;23;20445;-87
2023/06/22 13:02:05;;;;;;;5.27;4.87;;;27.60;99.90;;;;;;6219753;23;20903;-88
2023/06/22 13:05:18;;;;;;;6.77;6.00;;;27.90;1.00;;;;;;6219860;23;20413;-88
2023/06/22 13:23:40;;;;;;;14.83;9.03;;;;;;;;;;6119089;23;20446;-88
2023/06/22 13:26:45;;;;;;;;;;;;;;;;;;;;;
2023/06/22 13:29:56;;;;;;;4.63;4.27;;;27.90;99.90;;;;;;6104347;23;20414;-87
2023/06/22 13:46:03;;;;;;;5.20;4.80;;;28.10;99.90;;;;;;6105357;23;20401;-87
2023/06/22 13:48:53;;;;;;;7.20;5.27;;;28.20;99.90;;;;;;6122993;23;20394;-88
2023/06/22 13:55:47;;;;;;;7.63;6.93;;;28.40;1.00;;;;;;6070051;23;20435;-89
2023/06/22 13:58:51;;;;;;;6.20;5.60;;;28.70;1.00;;;;;;6184735;23;20418;-89
2023/06/22 14:01:43;;;;;;;5.57;5.17;;;28.20;99.90;;;;;;6244313;23;20393;-90
2023/06/22 14:04:20;;;;;;;6.50;5.97;;;28.30;99.90;;;;;;6244193;23;20466;-90
2023/06/22 14:07:35;;;;;;;6.13;5.63;;;28.20;99.90;;;;;;6243390;23;20390;-89
2023/06/22 14:16:22;;;;;;;5.97;5.47;;;28.10;99.90;;;;;;6228997;23;20409;-89
2023/06/22 14:19:02;;;;;;;5.20;4.77;;;27.70;1.00;;;;;;6226458;23;20445;-89
2023/06/22 14:24:51;;;;;;;6.40;5.90;;;28.10;99.90;;;;;;6134485;23;20957;-89
2023/06/22 14:27:30;;;;;;;6.30;5.33;;;27.80;1.00;;;;;;6141411;23;20420;-90
2023/06/22 14:30:24;;;;;;;5.83;5.33;;;28.30;99.90;;;;;;6226363;23;20402;-90
2023/06/22 14:37:00;;;;;;;10.03;5.13;;;28.30;99.90;;;;;;6238774;23;20398;-91
2023/06/22 14:46:03;;;;;;;5.30;4.90;;;28.30;99.90;;;;;;6223943;23;20429;-90
2023/06/22 14:52:28;;;;;;;5.37;4.97;;;28.10;99.90;;;;;;6231992;23;20433;-90
2023/06/22 14:55:36;;;;;;;4.67;4.23;;;28.10;99.90;;;;;;6243761;23;20418;-92
2023/06/22 15:05:06;;;;;;;6.27;5.77;;;28.30;1.00;;;;;;6240476;23;20394;-91
2023/06/22 15:11:15;;;;;;;6.30;5.20;;;28.30;1.00;;;;;;6122778;23;20413;-91
2023/06/22 15:13:50;;;;;;;5.93;5.43;;;28.20;99.90;;;;;;6153035;23;20402;-89
2023/06/22 15:16:32;;;;;;;6.17;5.77;;;28.30;99.90;;;;;;6227540;23;20414;-89
2023/06/22 15:27:38;;;;;;;7.70;5.47;;;28.30;1.00;;;;;;6237725;22;20513;-89
2023/06/22 15:39:48;;;;;;;6.87;5.87;;;;;;;;;;6243654;23;20433;-90
2023/06/22 15:42:16;;;;;;;6.87;6.17;;;27.80;99.90;;;;;;6243813;23;20398;-89
2023/06/22 15:44:44;;;;;;;8.80;6.17;;;;;;;;;;6242929;23;20386;-91
2023/06/22 15:47:11;;;;;;;6.67;4.90;;;;;;;;;;6242311;23;20393;-91
2023/06/22 15:49:39;;;;;;;7.27;5.70;;;;;;;;;;6231161;23;20876;-91
2023/06/22 15:52:06;;;;;;;6.97;6.23;;;;;;;;;;6226216;23;20445;-91
2023/06/22 15:54:33;;;;;;;6.60;6.00;;;;;;;;;;6227148;23;20445;-91
2023/06/22 15:57:01;;;;;;;5.47;4.97;;;;;;;;;;6235885;23;20410;-91
2023/06/22 15:59:30;;;;;;;6.60;6.07;;;28.00;99.90;;;;;;6237492;23;20425;-91
2023/06/22 16:01:57;;;;;;;7.20;6.50;;;;;;;;;;6241568;23;20453;-91
2023/06/22 16:04:25;;;;;;;6.47;5.87;;;;;;;;;;6236504;23;20410;-91
2023/06/22 16:06:52;;;;;;;6.13;5.57;;;;;;;;;;6227179;23;20390;-91
2023/06/22 16:09:20;;;;;;;7.10;5.60;;;;;;;;;;6233273;23;20457;-90
2023/06/22 16:11:48;;;;;;;6.97;6.33;;;;;;;;;;6232631;23;20450;-90
2023/06/22 16:14:15;;;;;;;6.33;5.73;;;;;;;;;;6234610;23;20406;-91
2023/06/22 16:16:58;;;;;;;6.63;6.13;;;28.00;99.90;;;;;;6231302;23;20397;-91
2023/06/22 16:19:26;;;;;;;6.60;6.03;;;;;;;;;;6228385;23;20519;-90
2023/06/22 16:21:54;;;;;;;7.30;6.70;;;;;;;;;;6225924;23;20417;-91
2023/06/22 16:24:22;;;;;;;6.00;5.50;;;;;;;;;;6224110;23;20395;-91
2023/06/22 16:26:50;;;;;;;6.20;5.70;;;;;;;;;;6224649;23;20423;-91
2023/06/22 16:29:20;;;;;;;6.10;5.60;;;;;;;;;;6233869;23;20433;-90
2023/06/22 16:31:49;;;;;;;7.00;6.50;;;27.40;99.90;;;;;;6243275;23;20378;-91
2023/06/22 16:34:16;;;;;;;6.27;5.80;;;;;;;;;;6243688;23;20422;-90
2023/06/22 16:36:44;;;;;;;6.60;6.00;;;;;;;;;;6231633;23;20477;-91
2023/06/22 16:39:11;;;;;;;6.60;6.10;;;;;;;;;;6227098;23;20445;-91
2023/06/22 16:41:38;;;;;;;7.00;6.30;;;;;;;;;;6226348;23;20394;-91
2023/06/22 16:44:06;;;;;;;8.93;6.50;;;;;;;;;;6229022;23;20903;-91
2023/06/22 16:46:35;;;;;;;7.90;7.20;;;27.40;99.90;;;;;;6225739;23;20414;-91
2023/06/22 16:49:31;;;;;;;7.50;6.80;;;27.30;99.90;;;;;;6235540;23;20407;-92
2023/06/22 16:52:06;;;;;;;6.90;6.40;;;27.20;99.90;;;;;;6243059;23;20416;-91
2023/06/22 16:54:41;;;;;;;7.50;6.90;;;27.50;1.00;;;;;;6243636;23;20428;-90
2023/06/22 16:57:12;;;;;;;7.90;6.40;;;26.80;1.00;;;;;;6243937;23;20394;-91
2023/06/22 16:59:41;;;;;;;6.90;6.30;;;;;;;;;;6245484;23;20390;-91
2023/06/22 17:02:26;;;;;;;6.93;6.43;;;27.10;1.00;;;;;;6242932;23;20422;-91
2023/06/22 17:05:01;;;;;;;6.70;6.07;;;27.00;99.90;;;;;;6229421;23;20392;-91
2023/06/22 17:07:37;;;;;;;7.30;6.70;;;27.00;99.90;;;;;;6226430;23;20449;-91
2023/06/22 17:10:12;;;;;;;7.40;6.70;;;27.00;99.90;;;;;;6230369;23;20409;-92
2023/06/22 17:12:58;;;;;;;8.50;7.70;;;27.00;99.90;;;;;;6231545;23;20409;-92
2023/06/22 17:15:37;;;;;;;7.60;6.90;;;26.90;99.90;;;;;;6244873;23;20433;-91
2023/06/22 17:18:12;;;;;;;7.80;7.20;;;27.00;99.90;;;;;;6243013;22;20442;-91
2023/06/22 17:21:00;;;;;;;7.40;6.73;;;27.00;99.90;;;;;;6243651;23;20440;-91
2023/06/22 17:23:31;;;;;;;7.43;6.73;;;27.00;99.90;;;;;;6243991;23;20433;-91
2023/06/22 17:26:02;;;;;;;9.07;8.27;;;26.90;99.90;;;;;;6243544;23;20473;-91
2023/06/22 17:28:31;;;;;;;7.20;6.57;;;;;;;;;;6243914;23;20485;-90
2023/06/22 17:43:07;;;;;;;8.10;7.40;;;26.70;1.00;;;;;;6226331;23;20449;-91
2023/06/22 17:49:01;;;;;;;8.07;7.30;;;26.60;99.90;;;;;;6175138;23;20431;-89
2023/06/22 18:05:39;;;;;;;7.33;6.63;;;26.40;99.90;;;;;;6035771;23;20850;-89
2023/06/22 18:19:14;;;;;;;7.67;6.97;;;26.10;99.90;;;;;;6226748;22;20473;-89
2023/06/22 18:22:31;;;;;;;6.13;5.73;;;26.10;99.90;;;;;;6236107;23;20438;-89
2023/06/22 18:28:26;;;;;;;10.30;9.17;;;26.00;99.90;;;;;;6220656;23;20438;-91
2023/06/22 18:48:05;;;;;;;7.60;7.10;;;25.80;99.90;;;;;;6186608;22;20446;-90
2023/06/22 18:50:43;;;;;;;7.50;6.87;;;25.70;1.00;;;;;;6225820;23;20425;-90
2023/06/22 18:53:33;;;;;;;8.50;7.80;;;25.80;99.90;;;;;;6226222;23;20489;-91
2023/06/22 18:56:33;;;;;;;9.40;8.50;;;25.70;99.90;;;;;;6226365;23;20453;-89
2023/06/22 18:59:19;;;;;;;11.00;10.00;;;25.60;99.90;;;;;;6202556;23;20427;-89
2023/06/22 19:10:26;;;;;;;8.93;8.10;;;25.60;99.90;;;;;;6224464;22;20469;-91
2023/06/22 19:17:06;;;;;;;11.00;8.57;;;25.40;99.90;;;;;;5956659;24;20505;-91
2023/06/22 19:19:58;;;;;;;7.07;6.47;;;25.40;99.90;;;;;;6006039;24;20405;-91
2023/06/22 19:22:45;;;;;;;7.67;6.87;;;25.30;99.90;;;;;;6071835;23;20411;-92
2023/06/22 19:25:41;;;;;;;7.20;6.57;;;25.30;99.90;;;;;;6080860;23;20391;-92
2023/06/22 19:28:15;;;;;;;6.93;6.43;;;25.30;99.90;;;;;;6085636;23;20503;-92
2023/06/22 19:33:45;;;;;;;9.17;8.40;;;25.30;99.90;;;;;;6203402;23;20519;-91
2023/06/22 19:36:39;;;;;;;7.00;6.50;;;25.30;99.90;;;;;;6204148;23;20399;-92
2023/06/22 19:39:17;;;;;;;8.53;7.83;;;25.30;99.90;;;;;;6212697;23;20419;-92
2023/06/22 19:41:53;;;;;;;7.50;6.90;;;25.30;99.90;;;;;;6211059;23;20431;-91
2023/06/22 19:44:25;;;;;;;9.73;8.77;;;25.40;1.00;;;;;;6205381;23;20407;-92
2023/06/22 19:47:06;;;;;;;9.17;8.27;;;25.20;99.90;;;;;;6199613;23;20458;-91
2023/06/22 19:49:45;;;;;;;9.40;8.50;;;25.20;99.90;;;;;;6198791;23;20410;-92
2023/06/22 19:52:23;;;;;;;8.27;7.20;;;25.20;99.90;;;;;;6213265;23;20438;-90
2023/06/22 19:54:52;;;;;;;8.37;7.63;;;;;;;;;;6213833;23;20364;-90
2023/06/22 19:57:44;;;;;;;7.90;7.17;;;25.20;99.90;;;;;;6212762;23;20391;-90
2023/06/22 20:00:34;;;;;;;7.17;6.57;;;25.10;1.00;;;;;;6205690;23;20380;-93
2023/06/22 20:03:27;;;;;;;8.40;7.80;;;25.00;99.90;;;;;;6205485;23;20406;-92
2023/06/22 20:06:19;;;;;;;7.10;6.60;;;25.00;99.90;;;;;;6203982;23;20408;-92
2023/06/22 20:08:51;;;;;;;8.93;8.13;;;25.00;99.90;;;;;;6202633;23;20747;-90
2023/06/22 20:11:26;;;;;;;8.00;7.20;;;24.90;99.90;;;;;;6199436;23;20962;-92
2023/06/22 20:13:57;;;;;;;8.80;6.90;;;24.90;99.90;;;;;;6199026;23;20423;-91
2023/06/22 20:16:25;;;;;;;7.00;6.50;;;;;;;;;;6197914;23;20411;-92
2023/06/22 20:19:15;;;;;;;7.83;7.10;;;24.80;99.90;;;;;;6204313;23;20430;-91
2023/06/22 20:21:52;;;;;;;7.57;6.87;;;24.50;1.00;;;;;;6213435;23;20408;-92
2023/06/22 20:24:28;;;;;;;13.03;10.70;;;24.70;99.90;;;;;;6212314;23;20411;-92
2023/06/22 20:27:11;;;;;;;9.20;8.37;;;24.60;99.90;;;;;;6208049;23;20470;-92
2023/06/22 20:29:39;;;;;;;9.03;8.23;;;;;;;;;;6209324;23;20478;-91
2023/06/22 20:32:10;;;;;;;10.80;9.80;;;24.30;1.00;;;;;;6212542;23;20435;-92
2023/06/22 20:34:44;;;;;;;9.43;8.63;;;24.30;1.00;;;;;;6215787;23;20454;-91
2023/06/22 20:37:21;;;;;;;22.10;9.57;;;23.90;17.20;;;;;;6212321;23;20379;-92
2023/06/22 20:40:10;;;;;;;14.30;9.17;;;23.10;1.00;;;;;;6211876;23;20395;-91
2023/06/22 20:42:46;;;;;;;22.90;10.50;;;22.00;99.90;;;;;;6211608;23;20896;-90
2023/06/22 20:45:19;;;;;;;26.47;12.80;;;20.90;1.00;;;;;;6206426;23;20493;-90
2023/06/22 20:51:17;;;;;;;24.43;13.20;;;;;;;;;;6209327;23;20406;-91
2023/06/22 20:54:05;;;;;;;27.53;18.33;;;19.80;99.90;;;;;;6211767;23;20424;-91
2023/06/22 20:56:35;;;;;;;23.00;14.33;;;;;;;;;;6212024;23;20415;-90
2023/06/22 20:59:28;;;;;;;16.53;12.33;;;19.40;99.90;;;;;;6214776;23;20422;-90
2023/06/22 21:02:01;;;;;;;27.90;15.23;;;19.40;99.90;;;;;;6209988;23;20439;-90
2023/06/22 21:08:10;;;;;;;21.50;16.00;;;19.20;99.90;;;;;;6204087;23;20387;-90
2023/06/22 21:21:38;;;;;;;;;;;;;;;;;;;;;
2023/06/22 21:27:32;;;;;;;22.37;20.00;;;19.40;99.90;;;;;;6241171;23;20470;-91
2023/06/22 21:45:10;;;;;;;21.77;19.53;;;19.60;99.90;;;;;;6115530;23;20414;-89
2023/06/22 21:48:07;;;;;;;22.77;20.47;;;19.70;99.90;;;;;;6222445;23;20385;-88
2023/06/22 21:57:54;;;;;;;29.30;23.37;;;19.50;99.90;;;;;;6217168;23;20403;-87
2023/06/22 22:01:05;;;;;;;33.80;25.50;;;19.50;99.90;;;;;;6221586;23;20422;-88
2023/06/22 22:37:08;;;;;;;23.97;21.60;;;19.00;99.90;;;;;;6190808;23;20420;-89
2023/06/22 22:42:11;;;;;;;24.17;21.67;;;;;;;;;;6221953;22;20445;-89
2023/06/22 22:44:39;;;;;;;24.47;22.00;;;;;;;;;;6221014;23;20401;-89
2023/06/22 22:47:07;;;;;;;24.50;21.60;;;18.90;99.90;;;;;;6221483;23;20431;-89
2023/06/22 22:49:35;;;;;;;26.03;22.83;;;;;;;;;;6220340;23;20402;-89
2023/06/22 22:52:02;;;;;;;25.20;22.67;;;;;;;;;;6222370;23;20445;-88
2023/06/22 22:54:29;;;;;;;23.30;20.70;;;;;;;;;;6222844;23;20525;-89
2023/06/22 22:56:56;;;;;;;22.93;20.47;;;18.70;99.90;;;;;;6221021;23;20896;-89
2023/06/22 22:59:23;;;;;;;23.83;21.23;;;;;;;;;;6228958;23;20394;-89
2023/06/22 23:01:50;;;;;;;23.27;20.97;;;;;;;;;;6240991;23;20423;-89
2023/06/22 23:04:19;;;;;;;23.23;19.80;;;18.60;99.90;;;;;;6242532;23;20394;-93